createdAt,value
2022-10-20T00:01:09.885Z,14.63
2022-10-20T00:03:39.937Z,13.48
2022-10-20T00:06:11.323Z,12.85
2022-10-20T00:08:39.971Z,12.63
2022-10-20T00:11:09.339Z,14.63
2022-10-20T00:13:37.484Z,16.20
2022-10-20T00:16:05.386Z,17.45
2022-10-20T00:18:33.413Z,16.13
2022-10-20T00:21:00.607Z,14.95
2022-10-20T00:23:28.073Z,17.85
2022-10-20T00:26:06.998Z,16.98
2022-10-20T00:28:35.107Z,17.42
2022-10-20T00:31:03.476Z,15.27
2022-10-20T00:33:31.094Z,16.20
2022-10-20T00:36:02.849Z,16.23
2022-10-20T00:38:30.823Z,28.30
2022-10-20T00:41:00.290Z,41.05
2022-10-20T00:43:41.412Z,47.17
2022-10-20T00:46:08.872Z,30.50
2022-10-20T00:48:36.268Z,27.70
2022-10-20T00:51:03.982Z,29.00
2022-10-20T00:53:31.482Z,23.98
2022-10-20T00:56:00.248Z,20.73
2022-10-20T00:58:28.856Z,18.13
2022-10-20T01:00:59.835Z,18.67
2022-10-20T01:03:49.850Z,20.15
2022-10-20T01:06:19.245Z,20.85
2022-10-20T01:08:46.798Z,18.33
2022-10-20T01:11:19.722Z,18.15
2022-10-20T01:14:29.268Z,18.23
2022-10-20T01:17:18.377Z,17.70
2022-10-20T01:20:07.403Z,19.08
2022-10-20T01:22:44.700Z,17.88
2022-10-20T01:25:30.469Z,23.63
2022-10-20T01:28:23.037Z,24.13
2022-10-20T01:30:59.318Z,21.52
2022-10-20T01:36:25.327Z,22.20
2022-10-20T01:39:02.122Z,21.65
2022-10-20T01:41:41.037Z,21.85
2022-10-20T01:44:12.313Z,18.40
2022-10-20T01:46:42.887Z,18.58
2022-10-20T01:49:11.377Z,17.65
2022-10-20T01:51:38.806Z,17.80
2022-10-20T01:54:06.398Z,20.50
2022-10-20T01:56:42.726Z,28.27
2022-10-20T01:59:47.622Z,25.92
2022-10-20T02:02:26.348Z,30.38
2022-10-20T02:05:12.026Z,30.52
2022-10-20T02:07:42.087Z,25.23
2022-10-20T02:10:24.453Z,24.73
2022-10-20T02:12:56.987Z,19.55
2022-10-20T02:15:31.067Z,17.67
2022-10-20T02:18:06.907Z,16.35
2022-10-20T02:20:34.587Z,17.30
2022-10-20T02:23:04.874Z,17.77
2022-10-20T02:25:34.222Z,18.77
2022-10-20T02:28:04.720Z,18.05
2022-10-20T02:30:32.476Z,16.90
2022-10-20T02:33:00.047Z,17.50
2022-10-20T02:35:32.057Z,16.17
2022-10-20T02:38:00.128Z,16.63
2022-10-20T02:40:28.117Z,17.83
2022-10-20T02:42:55.552Z,15.63
2022-10-20T02:45:25.193Z,15.50
2022-10-20T02:47:52.669Z,15.85
2022-10-20T02:50:19.973Z,17.27
2022-10-20T02:52:47.482Z,14.65
2022-10-20T02:55:14.629Z,17.02
2022-10-20T02:57:42.191Z,17.10
2022-10-20T03:00:10.111Z,21.13
2022-10-20T03:02:37.643Z,20.15
2022-10-20T03:05:05.352Z,18.58
2022-10-20T03:07:32.964Z,17.38
2022-10-20T03:10:00.262Z,17.00
2022-10-20T03:12:30.143Z,16.08
2022-10-20T03:14:59.433Z,14.65
2022-10-20T03:17:26.878Z,16.90
2022-10-20T03:19:54.124Z,16.48
2022-10-20T03:22:21.562Z,15.85
2022-10-20T03:24:48.876Z,16.65
2022-10-20T03:27:16.393Z,15.75
2022-10-20T03:29:43.723Z,16.27
2022-10-20T03:32:11.287Z,15.43
2022-10-20T03:34:38.478Z,16.48
2022-10-20T03:37:05.854Z,15.27
2022-10-20T03:39:33.102Z,15.50
2022-10-20T03:42:00.467Z,18.70
2022-10-20T03:44:27.727Z,17.77
2022-10-20T03:46:55.163Z,17.02
2022-10-20T03:49:22.348Z,20.55
2022-10-20T03:51:49.843Z,17.17
2022-10-20T03:54:16.953Z,20.63
2022-10-20T03:56:44.307Z,18.67
2022-10-20T03:59:12.079Z,19.10
2022-10-20T04:01:39.512Z,19.85
2022-10-20T04:04:06.807Z,18.70
2022-10-20T04:06:34.287Z,19.33
2022-10-20T04:09:01.595Z,19.75
2022-10-20T04:11:29.163Z,20.63
2022-10-20T04:13:56.453Z,18.48
2022-10-20T04:16:24.532Z,19.52
2022-10-20T04:18:55.967Z,26.88
2022-10-20T04:21:25.926Z,19.23
2022-10-20T04:23:53.143Z,18.92
2022-10-20T04:26:20.520Z,17.08
2022-10-20T04:28:47.677Z,19.85
2022-10-20T04:31:15.113Z,17.25
2022-10-20T04:33:42.522Z,22.02
2022-10-20T04:36:12.608Z,25.42
2022-10-20T04:38:39.927Z,20.88
2022-10-20T04:41:07.360Z,20.23
2022-10-20T04:43:34.823Z,23.50
2022-10-20T04:46:07.071Z,21.73
2022-10-20T04:48:37.883Z,27.45
2022-10-20T04:51:10.762Z,28.27
2022-10-20T04:53:40.528Z,36.33
2022-10-20T04:56:10.798Z,51.03
2022-10-20T04:58:37.985Z,47.30
2022-10-20T05:01:08.633Z,41.13
2022-10-20T05:03:37.234Z,43.78
2022-10-20T05:06:17.429Z,40.45
2022-10-20T05:08:47.204Z,39.60
2022-10-20T05:11:18.387Z,42.60
2022-10-20T05:13:45.822Z,38.83
2022-10-20T05:16:13.907Z,39.38
2022-10-20T05:18:41.223Z,31.15
2022-10-20T05:21:14.388Z,25.88
2022-10-20T05:23:42.725Z,26.75
2022-10-20T05:26:13.524Z,22.80
2022-10-20T05:28:44.689Z,22.48
2022-10-20T05:31:12.793Z,21.35
2022-10-20T05:33:51.033Z,21.85
2022-10-20T05:36:21.765Z,22.75
2022-10-20T05:38:51.003Z,23.30
2022-10-20T05:41:20.823Z,30.27
2022-10-20T05:43:50.293Z,31.85
2022-10-20T05:46:19.303Z,29.30
2022-10-20T05:48:47.563Z,27.30
2022-10-20T05:51:18.194Z,31.05
2022-10-20T05:53:47.286Z,28.80
2022-10-20T05:56:17.905Z,26.30
2022-10-20T05:58:45.525Z,26.42
2022-10-20T06:01:21.292Z,25.38
2022-10-20T06:03:52.913Z,29.85
2022-10-20T06:06:22.702Z,29.23
2022-10-20T06:08:51.135Z,29.75
2022-10-20T06:11:22.808Z,31.35
2022-10-20T06:13:52.834Z,33.97
2022-10-20T06:16:23.614Z,31.55
2022-10-20T06:18:51.192Z,28.08
2022-10-20T06:21:21.753Z,30.27
2022-10-20T06:23:49.655Z,29.45
2022-10-20T06:26:33.269Z,37.47
2022-10-20T06:29:03.999Z,42.65
2022-10-20T06:31:40.717Z,43.83
2022-10-20T06:34:11.135Z,46.67
2022-10-20T06:36:40.345Z,43.25
2022-10-20T06:39:10.767Z,42.58
2022-10-20T06:41:39.198Z,40.38
2022-10-20T06:44:10.865Z,40.50
2022-10-20T06:46:38.468Z,41.70
2022-10-20T06:49:08.207Z,38.33
2022-10-20T06:51:35.972Z,32.33
2022-10-20T06:54:03.960Z,29.40
2022-10-20T06:56:36.308Z,20.50
2022-10-20T06:59:07.207Z,17.40
2022-10-20T07:01:36.977Z,17.42
2022-10-20T07:04:07.665Z,21.30
2022-10-20T07:06:38.032Z,17.23
2022-10-20T07:09:08.666Z,17.10
2022-10-20T07:11:36.488Z,17.23
2022-10-20T07:14:06.124Z,15.85
2022-10-20T07:16:35.202Z,17.00
2022-10-20T07:19:04.792Z,15.18
2022-10-20T07:21:36.497Z,15.15
2022-10-20T07:24:06.489Z,15.25
2022-10-20T07:26:36.821Z,21.38
2022-10-20T07:29:05.189Z,22.88
2022-10-20T07:31:36.103Z,20.55
2022-10-20T07:34:23.848Z,20.73
2022-10-20T07:36:52.718Z,19.05
2022-10-20T07:39:19.888Z,19.95
2022-10-20T07:41:48.454Z,20.90
2022-10-20T07:44:16.906Z,18.88
2022-10-20T07:46:44.749Z,17.65
2022-10-20T07:51:59.645Z,16.65
2022-10-20T07:54:27.009Z,17.08
2022-10-20T07:56:54.596Z,16.13
2022-10-20T07:59:21.966Z,13.93
2022-10-20T08:01:51.257Z,10.60
2022-10-20T08:08:01.439Z,11.20
2022-10-20T08:10:29.013Z,11.43
2022-10-20T08:12:56.287Z,10.68
2022-10-20T08:15:23.772Z,9.77
2022-10-20T08:17:51.024Z,10.07
2022-10-20T08:20:27.225Z,9.63
2022-10-20T08:22:54.647Z,7.93
2022-10-20T08:25:22.152Z,9.73
2022-10-20T08:27:49.468Z,8.50
2022-10-20T08:30:23.973Z,8.98
2022-10-20T08:32:53.023Z,9.77
2022-10-20T08:35:21.655Z,9.10
2022-10-20T08:37:49.269Z,7.28
2022-10-20T08:40:23.252Z,9.20
2022-10-20T08:42:51.657Z,8.65
2022-10-20T08:45:24.645Z,6.55
2022-10-20T08:47:59.310Z,7.18
2022-10-20T08:50:28.698Z,5.53
2022-10-20T08:52:59.547Z,4.20
2022-10-20T08:55:29.425Z,4.30
2022-10-20T08:58:12.556Z,4.05
2022-10-20T09:00:40.890Z,3.50
2022-10-20T09:03:33.714Z,3.10
2022-10-20T09:06:13.677Z,3.42
2022-10-20T09:08:42.178Z,3.63
2022-10-20T09:11:15.900Z,4.28
2022-10-20T09:13:43.318Z,3.10
2022-10-20T09:16:33.377Z,4.18
2022-10-20T09:19:18.428Z,2.97
2022-10-20T09:21:51.035Z,3.90
2022-10-20T09:24:21.296Z,4.22
2022-10-20T09:26:59.985Z,3.70
2022-10-20T09:29:39.105Z,3.38
2022-10-20T09:32:47.019Z,3.75
2022-10-20T09:35:22.344Z,3.35
2022-10-20T09:38:04.285Z,2.67
2022-10-20T09:40:32.414Z,2.47
2022-10-20T09:43:17.455Z,2.45
2022-10-20T09:45:55.013Z,2.30
2022-10-20T09:48:49.523Z,2.40
2022-10-20T09:51:27.908Z,2.90
2022-10-20T09:54:05.173Z,2.75
2022-10-20T09:56:41.463Z,2.92
2022-10-20T09:59:33.025Z,3.58
2022-10-20T10:02:04.258Z,2.92
2022-10-20T10:04:33.968Z,2.83
2022-10-20T10:07:02.673Z,3.25
2022-10-20T10:09:35.333Z,2.75
2022-10-20T10:12:17.486Z,3.13
2022-10-20T10:15:00.682Z,2.65
2022-10-20T10:17:33.661Z,3.05
2022-10-20T10:20:26.406Z,2.22
2022-10-20T10:23:13.866Z,1.75
2022-10-20T10:25:41.466Z,2.38
2022-10-20T10:28:24.698Z,2.10
2022-10-20T10:31:05.968Z,2.38
2022-10-20T10:33:35.830Z,2.63
2022-10-20T10:36:11.754Z,1.88
2022-10-20T10:38:39.096Z,1.83
2022-10-20T10:41:25.879Z,1.85
2022-10-20T10:44:07.853Z,1.15
2022-10-20T10:46:47.977Z,2.05
2022-10-20T10:49:54.959Z,1.52
2022-10-20T10:52:51.645Z,1.45
2022-10-20T10:55:47.812Z,1.40
2022-10-20T10:58:19.308Z,1.95
2022-10-20T11:00:52.834Z,1.70
2022-10-20T11:03:37.682Z,1.80
2022-10-20T11:06:30.509Z,1.85
2022-10-20T11:09:13.322Z,1.17
2022-10-20T11:11:48.033Z,1.38
2022-10-20T11:14:39.134Z,1.53
2022-10-20T11:17:12.109Z,1.60
2022-10-20T11:20:07.495Z,1.27
2022-10-20T11:22:50.598Z,1.40
2022-10-20T11:25:33.359Z,1.27
2022-10-20T11:28:00.907Z,1.95
2022-10-20T11:30:30.564Z,1.38
2022-10-20T11:33:00.635Z,1.52
2022-10-20T11:35:52.153Z,1.40
2022-10-20T11:38:37.695Z,2.10
2022-10-20T11:41:31.326Z,1.40
2022-10-20T11:44:05.216Z,0.98
2022-10-20T11:46:41.812Z,1.85
2022-10-20T11:49:12.417Z,2.60
2022-10-20T11:52:12.075Z,1.60
2022-10-20T11:54:58.036Z,1.52
2022-10-20T11:57:43.599Z,1.90
2022-10-20T12:00:17.216Z,1.93
2022-10-20T12:03:21.994Z,2.53
2022-10-20T12:06:27.235Z,4.25
2022-10-20T12:09:19.040Z,4.90
2022-10-20T12:11:57.606Z,1.83
2022-10-20T12:14:33.001Z,1.88
2022-10-20T12:17:12.510Z,2.40
2022-10-20T12:19:40.402Z,1.83
2022-10-20T12:22:30.483Z,2.13
2022-10-20T12:24:57.863Z,2.88
2022-10-20T12:27:30.261Z,3.47
2022-10-20T12:30:02.248Z,1.60
2022-10-20T12:32:29.519Z,3.47
2022-10-20T12:35:00.369Z,1.65
2022-10-20T12:37:31.174Z,1.80
2022-10-20T12:40:07.553Z,1.73
2022-10-20T12:42:48.343Z,1.63
2022-10-20T12:45:18.750Z,1.70
2022-10-20T12:47:53.375Z,1.50
2022-10-20T12:50:44.917Z,1.80
2022-10-20T12:53:21.769Z,1.58
2022-10-20T12:56:03.303Z,1.50
2022-10-20T12:58:34.665Z,1.75
2022-10-20T13:01:07.270Z,1.60
2022-10-20T13:03:43.883Z,1.80
2022-10-20T13:06:23.375Z,1.45
2022-10-20T13:09:03.167Z,1.48
2022-10-20T13:11:39.658Z,1.90
2022-10-20T13:14:13.382Z,1.40
2022-10-20T13:16:51.338Z,1.58
2022-10-20T13:19:30.183Z,1.20
2022-10-20T13:21:58.028Z,1.23
2022-10-20T13:24:34.399Z,1.42
2022-10-20T13:27:09.215Z,1.75
2022-10-20T13:29:40.308Z,1.50
2022-10-20T13:32:32.068Z,1.10
2022-10-20T13:35:53.552Z,1.17
2022-10-20T13:38:39.383Z,1.23
2022-10-20T13:41:28.503Z,1.10
2022-10-20T13:44:13.358Z,1.50
2022-10-20T13:47:00.085Z,1.20
2022-10-20T13:49:30.548Z,1.27
2022-10-20T13:52:03.293Z,1.30
2022-10-20T13:54:34.486Z,1.80
2022-10-20T13:57:02.958Z,1.33
2022-10-20T13:59:30.867Z,8.45
2022-10-20T14:02:03.993Z,1.85
2022-10-20T14:04:34.555Z,1.65
2022-10-20T14:07:13.564Z,1.38
2022-10-20T14:09:45.376Z,5.63
2022-10-20T14:12:25.771Z,5.30
2022-10-20T14:15:01.447Z,5.88
2022-10-20T14:20:19.347Z,10.45
2022-10-20T14:22:48.379Z,3.47
2022-10-20T14:25:16.515Z,3.13
2022-10-20T14:27:45.523Z,15.32
2022-10-20T14:30:16.843Z,5.18
2022-10-20T14:32:46.296Z,4.90
2022-10-20T14:35:18.859Z,6.22
2022-10-20T14:37:52.950Z,2.97
2022-10-20T14:40:31.636Z,2.90
2022-10-20T14:43:06.638Z,4.53
2022-10-20T14:45:34.583Z,14.60
2022-10-20T14:48:02.566Z,9.65
2022-10-20T14:50:41.070Z,9.23
2022-10-20T14:53:25.399Z,16.00
2022-10-20T14:55:56.034Z,9.10
2022-10-20T14:58:30.748Z,11.32
2022-10-20T15:01:26.032Z,26.23
2022-10-20T15:04:17.107Z,4.75
2022-10-20T15:06:44.848Z,10.23
2022-10-20T15:09:26.093Z,7.43
2022-10-20T15:11:53.628Z,8.27
2022-10-20T15:14:21.725Z,9.10
2022-10-20T15:16:50.145Z,9.32
2022-10-20T15:19:25.965Z,8.07
2022-10-20T15:22:02.976Z,10.60
2022-10-20T15:24:30.706Z,9.68
2022-10-20T15:26:59.368Z,7.80
2022-10-20T15:29:28.037Z,6.50
2022-10-20T15:31:55.898Z,8.85
2022-10-20T15:34:23.616Z,24.33
2022-10-20T15:36:51.269Z,36.30
2022-10-20T15:39:19.005Z,15.77
2022-10-20T15:41:49.039Z,12.95
2022-10-20T15:44:24.034Z,11.48
2022-10-20T15:46:55.590Z,19.05
2022-10-20T15:49:24.031Z,21.23
2022-10-20T15:51:51.896Z,25.20
2022-10-20T15:54:21.567Z,17.70
2022-10-20T15:56:49.128Z,13.82
2022-10-20T15:59:17.102Z,18.08
2022-10-20T16:01:47.104Z,14.43
2022-10-20T16:04:23.533Z,18.02
2022-10-20T16:06:57.817Z,28.55
2022-10-20T16:09:28.054Z,34.28
2022-10-20T16:11:55.385Z,46.40
2022-10-20T16:14:23.071Z,52.28
2022-10-20T16:16:50.405Z,51.53
2022-10-20T16:19:17.936Z,40.85
2022-10-20T16:21:45.236Z,29.08
2022-10-20T16:24:12.715Z,28.02
2022-10-20T16:26:40.368Z,30.70
2022-10-20T16:29:07.893Z,37.05
2022-10-20T16:31:35.775Z,53.67
2022-10-20T16:34:03.617Z,51.22
2022-10-20T16:36:35.076Z,53.05
2022-10-20T16:39:02.814Z,46.08
2022-10-20T16:41:30.290Z,43.55
2022-10-20T16:44:01.410Z,45.28
2022-10-20T16:46:29.059Z,54.30
2022-10-20T16:48:57.500Z,68.47
2022-10-20T16:51:25.368Z,101.25
2022-10-20T16:54:00.801Z,99.15
2022-10-20T16:56:32.885Z,96.25
2022-10-20T16:59:04.452Z,95.00
2022-10-20T17:01:32.178Z,99.25
2022-10-20T17:03:59.738Z,114.13
2022-10-20T17:06:29.765Z,119.38
2022-10-20T17:08:59.481Z,134.40
2022-10-20T17:11:29.433Z,138.90
2022-10-20T17:13:57.944Z,138.63
2022-10-20T17:16:32.225Z,132.13
2022-10-20T17:19:01.927Z,133.55
2022-10-20T17:21:31.565Z,124.03
2022-10-20T17:23:59.677Z,139.70
2022-10-20T17:26:30.719Z,143.65
2022-10-20T17:29:00.370Z,160.35
2022-10-20T17:31:31.412Z,164.23
2022-10-20T17:33:59.862Z,152.05
2022-10-20T17:36:30.560Z,140.15
2022-10-20T17:39:05.784Z,142.43
2022-10-20T17:41:33.661Z,141.95
2022-10-20T17:44:05.278Z,138.77
2022-10-20T17:46:33.635Z,132.25
2022-10-20T17:49:04.047Z,133.98
2022-10-20T17:51:34.467Z,127.43
2022-10-20T17:54:03.601Z,127.45
2022-10-20T17:56:36.218Z,120.43
2022-10-20T17:59:06.680Z,107.40
2022-10-20T18:01:41.359Z,110.38
2022-10-20T18:04:12.694Z,104.93
2022-10-20T18:06:40.803Z,97.20
2022-10-20T18:09:11.436Z,95.18
2022-10-20T18:11:40.868Z,93.53
2022-10-20T18:14:08.267Z,110.97
2022-10-20T18:16:37.488Z,107.60
2022-10-20T18:19:05.653Z,101.55
2022-10-20T18:21:33.308Z,95.22
2022-10-20T18:24:03.447Z,92.97
2022-10-20T18:26:34.047Z,99.30
2022-10-20T18:29:03.063Z,99.22
2022-10-20T18:31:32.573Z,96.15
2022-10-20T18:34:05.759Z,107.43
2022-10-20T18:36:37.950Z,106.47
2022-10-20T18:39:08.465Z,114.35
2022-10-20T18:41:38.819Z,115.28
2022-10-20T18:44:11.028Z,92.50
2022-10-20T18:46:42.058Z,93.05
2022-10-20T18:49:12.860Z,89.80
2022-10-20T18:51:44.914Z,86.80
2022-10-20T18:54:12.938Z,82.32
2022-10-20T18:56:40.254Z,78.35
2022-10-20T18:59:09.895Z,78.30
2022-10-20T19:01:39.274Z,81.18
2022-10-20T19:04:09.203Z,76.20
2022-10-20T19:06:44.409Z,76.63
2022-10-20T19:09:18.609Z,77.88
2022-10-20T19:11:47.556Z,78.53
2022-10-20T19:14:16.100Z,91.28
2022-10-20T19:16:47.207Z,113.95
2022-10-20T19:19:15.495Z,147.68
2022-10-20T19:21:45.206Z,121.00
2022-10-20T19:24:19.959Z,114.18
2022-10-20T19:27:02.142Z,91.03
2022-10-20T19:29:42.809Z,96.18
2022-10-20T19:32:11.686Z,105.57
2022-10-20T19:34:42.262Z,103.88
2022-10-20T19:37:09.969Z,73.18
2022-10-20T19:39:41.004Z,69.60
2022-10-20T19:42:11.548Z,66.50
2022-10-20T19:44:40.090Z,66.78
2022-10-20T19:47:08.537Z,67.95
2022-10-20T19:49:36.328Z,67.75
2022-10-20T19:52:04.604Z,69.85
2022-10-20T19:54:32.496Z,77.43
2022-10-20T19:57:00.184Z,71.35
2022-10-20T19:59:28.186Z,69.97
2022-10-20T20:01:55.869Z,68.65
2022-10-20T20:04:23.695Z,76.88
2022-10-20T20:06:51.579Z,98.38
2022-10-20T20:09:19.299Z,95.78
2022-10-20T20:11:49.295Z,97.70
2022-10-20T20:14:19.435Z,96.45
2022-10-20T20:16:51.028Z,98.88
2022-10-20T20:19:19.855Z,100.28
2022-10-20T20:21:47.514Z,107.03
2022-10-20T20:24:15.187Z,94.68
2022-10-20T20:26:44.663Z,84.93
2022-10-20T20:29:12.415Z,69.10
2022-10-20T20:31:39.766Z,66.82
2022-10-20T20:34:07.431Z,68.53
2022-10-20T20:36:39.996Z,72.65
2022-10-20T20:39:08.225Z,66.35
2022-10-20T20:41:35.624Z,67.30
2022-10-20T20:44:07.889Z,64.63
2022-10-20T20:46:36.735Z,70.97
2022-10-20T20:49:04.766Z,70.53
2022-10-20T20:51:34.955Z,68.45
2022-10-20T20:54:04.121Z,72.07
2022-10-20T20:56:31.968Z,61.22
2022-10-20T20:58:59.876Z,59.95
2022-10-20T21:01:31.402Z,66.80
2022-10-20T21:04:01.558Z,65.25
2022-10-20T21:06:33.988Z,66.60
2022-10-20T21:09:11.478Z,61.90
2022-10-20T21:11:39.025Z,65.55
2022-10-20T21:14:06.678Z,66.80
2022-10-20T21:16:36.986Z,67.82
2022-10-20T21:19:08.797Z,66.88
2022-10-20T21:21:45.075Z,63.65
2022-10-20T21:24:14.404Z,64.57
2022-10-20T21:26:41.678Z,63.70
2022-10-20T21:29:09.439Z,63.67
2022-10-20T21:31:36.892Z,68.38
2022-10-20T21:34:05.655Z,71.88
2022-10-20T21:36:35.527Z,69.28
2022-10-20T21:39:05.575Z,73.95
2022-10-20T21:41:34.987Z,72.65
2022-10-20T21:44:06.005Z,77.13
2022-10-20T21:46:47.850Z,74.03
2022-10-20T21:49:19.608Z,75.28
2022-10-20T21:51:55.575Z,70.90
2022-10-20T21:54:25.314Z,70.72
2022-10-20T21:56:52.866Z,72.22
2022-10-20T21:59:22.574Z,65.85
2022-10-20T22:01:50.965Z,69.65
2022-10-20T22:04:20.623Z,63.40
2022-10-20T22:06:48.204Z,58.15
2022-10-20T22:09:16.735Z,52.67
2022-10-20T22:11:49.890Z,54.03
2022-10-20T22:14:19.758Z,58.83
2022-10-20T22:16:47.039Z,61.75
2022-10-20T22:19:18.395Z,64.35
2022-10-20T22:21:48.242Z,62.17
2022-10-20T22:24:18.947Z,60.10
2022-10-20T22:26:47.046Z,61.38
2022-10-20T22:29:14.676Z,57.30
2022-10-20T22:31:42.056Z,59.67
2022-10-20T22:34:12.354Z,57.78
2022-10-20T22:36:40.970Z,58.88
2022-10-20T22:39:09.125Z,55.30
2022-10-20T22:41:36.745Z,54.00
2022-10-20T22:44:05.069Z,57.70
2022-10-20T22:46:32.808Z,54.88
2022-10-20T22:49:00.374Z,51.67
2022-10-20T22:51:28.668Z,54.67
2022-10-20T22:53:56.242Z,50.88
2022-10-20T22:56:25.712Z,55.08
2022-10-20T22:58:54.517Z,58.25
2022-10-20T23:01:23.753Z,56.88
2022-10-20T23:03:51.409Z,55.45
2022-10-20T23:06:21.885Z,58.25
2022-10-20T23:08:52.257Z,61.67
2022-10-20T23:11:19.948Z,59.25
2022-10-20T23:13:48.309Z,59.33
2022-10-20T23:16:15.781Z,62.45
2022-10-20T23:18:43.482Z,65.78
2022-10-20T23:21:13.112Z,61.88
2022-10-20T23:23:41.487Z,59.13
2022-10-20T23:26:09.030Z,59.28
2022-10-20T23:28:37.768Z,61.15
2022-10-20T23:31:06.113Z,56.03
2022-10-20T23:33:33.708Z,51.58
2022-10-20T23:36:01.013Z,54.78
2022-10-20T23:38:28.469Z,57.58
2022-10-20T23:40:55.857Z,52.08
2022-10-20T23:43:23.643Z,54.22
2022-10-20T23:45:50.955Z,51.63
2022-10-20T23:48:18.579Z,50.05
2022-10-20T23:50:45.829Z,50.78
2022-10-20T23:53:13.682Z,49.05
2022-10-20T23:55:41.145Z,45.33
2022-10-20T23:58:08.703Z,44.97
